Time;durP1;ratioP1;P1;durP2;ratioP2;P2;SDS_P1;SDS_P2;PMS_P1;PMS_P2;Temp;Humidity;BMP_temperature;BMP_pressure;BME280_temperature;BME280_humidity;BME280_pressure;Samples;Min_cycle;Max_cycle;Signal;HPM_P1;HPM_P2
2023/06/23 00:01:06;;;;;;;;;;;19.20;99.90;;;;;;7331897;19;111041;-60
2023/06/23 00:03:33;;;;;;;;;;;19.20;99.90;;;;;;7332507;19;109574;-60
2023/06/23 00:06:03;;;;;;;;;;;19.20;99.90;;;;;;7333555;19;108436;-60
2023/06/23 00:08:30;;;;;;;;;;;19.20;99.90;;;;;;7328775;19;109147;-60
2023/06/23 00:10:57;;;;;;;;;;;19.20;99.90;;;;;;7334999;19;109242;-60
2023/06/23 00:13:26;;;;;;;;;;;19.10;99.90;;;;;;7331138;19;109227;-60
2023/06/23 00:15:53;;;;;;;;;;;19.10;99.90;;;;;;7339421;19;109118;-60
2023/06/23 00:18:21;;;;;;;;;;;19.00;99.90;;;;;;7331195;19;109448;-60
2023/06/23 00:20:49;;;;;;;;;;;19.00;99.90;;;;;;7331834;19;109266;-60
2023/06/23 00:23:16;;;;;;;;;;;18.90;99.90;;;;;;7336492;19;113049;-60
2023/06/23 00:25:44;;;;;;;;;;;18.90;99.90;;;;;;7334328;19;109381;-60
2023/06/23 00:28:11;;;;;;;;;;;18.90;99.90;;;;;;7331812;19;109817;-60
2023/06/23 00:30:40;;;;;;;;;;;18.90;99.90;;;;;;7331766;19;108971;-60
2023/06/23 00:33:11;;;;;;;;;;;18.90;99.90;;;;;;7330048;19;111437;-60
2023/06/23 00:35:38;;;;;;;;;;;18.90;99.90;;;;;;7331872;19;110326;-60
2023/06/23 00:38:07;;;;;;;;;;;18.90;99.90;;;;;;7341860;19;108833;-60
2023/06/23 00:40:34;;;;;;;;;;;18.80;99.90;;;;;;7331800;19;109207;-60
2023/06/23 00:43:02;;;;;;;;;;;18.80;99.90;;;;;;7334044;19;108490;-60
2023/06/23 00:45:29;;;;;;;;;;;18.80;99.90;;;;;;7333995;19;109187;-62
2023/06/23 00:47:57;;;;;;;;;;;18.80;99.90;;;;;;7333112;19;109314;-60
2023/06/23 00:50:24;;;;;;;;;;;18.80;99.90;;;;;;7331649;19;108430;-60
2023/06/23 00:52:52;;;;;;;;;;;18.70;99.90;;;;;;7332466;19;108753;-60
2023/06/23 00:55:23;;;;;;;;;;;18.70;99.90;;;;;;7331048;19;110045;-60
2023/06/23 00:57:52;;;;;;;;;;;18.70;99.90;;;;;;7327987;19;110757;-61
2023/06/23 01:00:20;;;;;;;;;;;18.60;99.90;;;;;;7336702;19;111138;-60
2023/06/23 01:03:01;;;;;;;;;;;18.50;99.90;;;;;;7327452;19;110156;-60
2023/06/23 01:05:36;;;;;;;;;;;18.50;99.90;;;;;;7332266;19;109280;-61
2023/06/23 01:08:25;;;;;;;;;;;18.50;99.90;;;;;;7331889;19;110683;-64
2023/06/23 01:10:58;;;;;;;;;;;18.50;99.90;;;;;;7334400;19;108949;-60
2023/06/23 01:13:34;;;;;;;;;;;18.50;99.90;;;;;;7328617;19;110365;-60
2023/06/23 01:16:07;;;;;;;;;;;18.50;99.90;;;;;;7332636;19;109524;-60
2023/06/23 01:18:56;;;;;;;;;;;18.50;99.90;;;;;;7332419;19;110908;-60
2023/06/23 01:21:29;;;;;;;;;;;18.50;99.90;;;;;;7328153;19;109104;-60
2023/06/23 01:23:59;;;;;;;;;;;18.40;99.90;;;;;;7337558;19;109294;-60
2023/06/23 01:26:37;;;;;;;;;;;18.40;99.90;;;;;;7332338;19;108727;-60
2023/06/23 01:29:09;;;;;;;;;;;18.40;99.90;;;;;;7332464;19;109956;-60
2023/06/23 01:31:36;;;;;;;;;;;18.40;99.90;;;;;;7327776;19;112096;-60
2023/06/23 01:34:06;;;;;;;;;;;18.30;99.90;;;;;;7330996;19;110132;-60
2023/06/23 01:36:42;;;;;;;;;;;18.40;99.90;;;;;;7331416;19;109817;-60
2023/06/23 01:39:16;;;;;;;;;;;18.30;99.90;;;;;;7330662;19;108850;-60
2023/06/23 01:41:52;;;;;;;;;;;18.30;99.90;;;;;;7330584;19;109157;-60
2023/06/23 01:44:22;;;;;;;;;;;18.30;99.90;;;;;;7332345;19;110223;-61
2023/06/23 01:46:51;;;;;;;;;;;18.30;99.90;;;;;;7336447;19;110338;-60
2023/06/23 01:49:21;;;;;;;;;;;18.20;99.90;;;;;;7333542;19;110185;-60
2023/06/23 01:51:49;;;;;;;;;;;18.20;99.90;;;;;;7329092;19;109324;-60
2023/06/23 01:54:17;;;;;;;;;;;18.20;99.90;;;;;;7332980;19;108817;-60
2023/06/23 01:56:45;;;;;;;;;;;18.10;99.90;;;;;;7327113;19;110177;-60
2023/06/23 01:59:13;;;;;;;;;;;18.10;99.90;;;;;;7328761;19;109178;-60
2023/06/23 02:01:44;;;;;;;;;;;18.10;99.90;;;;;;7332779;19;108402;-60
2023/06/23 02:04:12;;;;;;;;;;;18.10;99.90;;;;;;7329591;19;112015;-60
2023/06/23 02:06:41;;;;;;;;;;;18.10;99.90;;;;;;7338760;19;108342;-60
2023/06/23 02:09:11;;;;;;;;;;;18.10;99.90;;;;;;7328213;19;110306;-60
2023/06/23 02:11:38;;;;;;;;;;;18.10;99.90;;;;;;7330286;19;108481;-60
2023/06/23 02:14:06;;;;;;;;;;;18.10;99.90;;;;;;7327200;19;109087;-60
2023/06/23 02:16:34;;;;;;;;;;;18.00;99.90;;;;;;7332988;19;109636;-60
2023/06/23 02:19:02;;;;;;;;;;;18.00;99.90;;;;;;7329530;19;109751;-60
2023/06/23 02:21:29;;;;;;;;;;;18.00;99.90;;;;;;7329187;19;110382;-60
2023/06/23 02:23:58;;;;;;;;;;;17.90;99.90;;;;;;7329769;19;109600;-60
2023/06/23 02:26:26;;;;;;;;;;;17.90;99.90;;;;;;7330770;19;108762;-60
2023/06/23 02:28:53;;;;;;;;;;;17.90;99.90;;;;;;7336697;19;111340;-60
2023/06/23 02:31:22;;;;;;;;;;;17.90;99.90;;;;;;7333974;19;109194;-60
2023/06/23 02:33:50;;;;;;;;;;;17.90;99.90;;;;;;7328480;19;109575;-60
2023/06/23 02:36:20;;;;;;;;;;;17.90;99.90;;;;;;7331956;19;110092;-60
2023/06/23 02:38:48;;;;;;;;;;;17.90;99.90;;;;;;7326842;19;108604;-60
2023/06/23 02:41:17;;;;;;;;;;;17.80;99.90;;;;;;7333434;19;110170;-60
2023/06/23 02:43:50;;;;;;;;;;;17.80;99.90;;;;;;7328817;19;109312;-60
2023/06/23 02:46:19;;;;;;;;;;;17.80;99.90;;;;;;7331177;19;108990;-60
2023/06/23 02:48:48;;;;;;;;;;;17.80;99.90;;;;;;7333464;19;110826;-60
2023/06/23 02:51:18;;;;;;;;;;;17.80;99.90;;;;;;7329588;19;109102;-59
2023/06/23 02:53:56;;;;;;;;;;;17.80;99.90;;;;;;7328951;19;109886;-60
2023/06/23 02:56:25;;;;;;;;;;;17.80;99.90;;;;;;7329300;19;110417;-60
2023/06/23 02:58:56;;;;;;;;;;;17.80;99.90;;;;;;7331270;19;109354;-60
2023/06/23 03:01:26;;;;;;;;;;;17.70;99.90;;;;;;7327349;19;108870;-60
2023/06/23 03:03:55;;;;;;;;;;;17.70;99.90;;;;;;7327894;19;109712;-60
2023/06/23 03:06:22;;;;;;;;;;;17.70;99.90;;;;;;7326256;19;110628;-60
2023/06/23 03:08:50;;;;;;;;;;;17.70;99.90;;;;;;7329722;19;109658;-60
2023/06/23 03:11:18;;;;;;;;;;;17.70;99.90;;;;;;7336766;19;109468;-60
2023/06/23 03:13:46;;;;;;;;;;;17.70;99.90;;;;;;7335016;19;111335;-60
2023/06/23 03:16:18;;;;;;;;;;;17.70;99.90;;;;;;7332285;19;109445;-60
2023/06/23 03:18:53;;;;;;;;;;;17.60;99.90;;;;;;7333933;19;109432;-60
2023/06/23 03:21:21;;;;;;;;;;;17.60;99.90;;;;;;7337588;19;109268;-58
2023/06/23 03:23:50;;;;;;;;;;;17.50;99.90;;;;;;7332909;19;110286;-60
2023/06/23 03:26:19;;;;;;;;;;;17.50;99.90;;;;;;7334526;19;108871;-60
2023/06/23 03:28:46;;;;;;;;;;;17.50;99.90;;;;;;7334397;19;109025;-60
2023/06/23 03:31:17;;;;;;;;;;;17.40;99.90;;;;;;7333903;19;109927;-60
2023/06/23 03:33:46;;;;;;;;;;;17.40;99.90;;;;;;7338253;19;109098;-59
2023/06/23 03:36:13;;;;;;;;;;;17.40;99.90;;;;;;7356264;19;108335;-53
2023/06/23 03:38:59;;;;;;;;;;;17.40;99.90;;;;;;7351545;19;108553;-60
2023/06/23 03:41:29;;;;;;;;;;;17.30;99.90;;;;;;7348664;19;109112;-60
2023/06/23 03:44:17;;;;;;;;;;;17.30;99.90;;;;;;7351064;19;109119;-55
2023/06/23 03:46:50;;;;;;;;;;;17.30;99.90;;;;;;7348236;19;108989;-59
2023/06/23 03:49:20;;;;;;;;;;;17.30;99.90;;;;;;7334374;19;110213;-60
2023/06/23 03:51:48;;;;;;;;;;;17.30;99.90;;;;;;7335006;19;109576;-61
2023/06/23 03:54:16;;;;;;;;;;;17.30;99.90;;;;;;7337190;19;108486;-59
2023/06/23 03:56:45;;;;;;;;;;;17.30;99.90;;;;;;7335798;19;110079;-60
2023/06/23 03:59:13;;;;;;;;;;;17.30;99.90;;;;;;7337954;19;109621;-60
2023/06/23 04:01:41;;;;;;;;;;;17.20;99.90;;;;;;7338613;19;108880;-65
2023/06/23 04:04:09;;;;;;;;;;;17.10;99.90;;;;;;7333219;19;109539;-66
2023/06/23 04:06:37;;;;;;;;;;;17.10;99.90;;;;;;7337644;19;110447;-72
2023/06/23 04:09:04;;;;;;;;;;;17.10;99.90;;;;;;7335606;19;109105;-66
2023/06/23 04:11:31;;;;;;;;;;;17.20;99.90;;;;;;7335710;19;109486;-69
2023/06/23 04:13:59;;;;;;;;;;;17.20;99.90;;;;;;7336435;19;108907;-66
2023/06/23 04:16:26;;;;;;;;;;;17.20;99.90;;;;;;7336468;19;109093;-60
2023/06/23 04:21:40;;;;;;;;;;;17.30;99.90;;;;;;7334431;19;110621;-60
2023/06/23 04:24:09;;;;;;;;;;;17.30;99.90;;;;;;7333002;19;109230;-60
2023/06/23 04:26:36;;;;;;;;;;;17.30;99.90;;;;;;7334689;19;109417;-60
2023/06/23 04:29:05;;;;;;;;;;;17.30;99.90;;;;;;7332772;19;108583;-60
2023/06/23 04:31:34;;;;;;;;;;;17.30;99.90;;;;;;7336226;19;111033;-60
2023/06/23 04:34:01;;;;;;;;;;;17.30;99.90;;;;;;7336943;19;109329;-59
2023/06/23 04:36:34;;;;;;;;;;;17.40;99.90;;;;;;7335368;19;110600;-61
2023/06/23 04:39:06;;;;;;;;;;;17.40;99.90;;;;;;7335214;19;109250;-60
2023/06/23 04:41:34;;;;;;;;;;;17.40;99.90;;;;;;7340189;19;108700;-60
2023/06/23 04:44:06;;;;;;;;;;;17.40;99.90;;;;;;7337014;19;110026;-60
2023/06/23 04:46:36;;;;;;;;;;;17.50;99.90;;;;;;7335762;19;108937;-60
2023/06/23 04:49:08;;;;;;;;;;;17.50;99.90;;;;;;7335533;19;108916;-59
2023/06/23 04:51:38;;;;;;;;;;;17.50;99.90;;;;;;7336088;19;109133;-58
2023/06/23 04:54:17;;;;;;;;;;;17.50;99.90;;;;;;7333177;19;109044;-59
2023/06/23 04:56:48;;;;;;;;;;;17.60;99.90;;;;;;7337734;19;108395;-58
2023/06/23 04:59:17;;;;;;;;;;;17.60;99.90;;;;;;7334365;19;110562;-59
2023/06/23 05:01:45;;;;;;;;;;;17.60;99.90;;;;;;7332967;19;108820;-59
2023/06/23 05:04:13;;;;;;;;;;;17.70;99.90;;;;;;7342460;19;109426;-59
2023/06/23 05:06:42;;;;;;;;;;;17.70;99.90;;;;;;7334841;19;108789;-58
2023/06/23 05:09:11;;;;;;;;;;;17.70;99.90;;;;;;7333324;19;108907;-59
2023/06/23 05:11:39;;;;;;;;;;;17.80;99.90;;;;;;7335371;19;109348;-59
2023/06/23 05:14:07;;;;;;;;;;;17.80;99.90;;;;;;7336257;19;115292;-59
2023/06/23 05:16:36;;;;;;;;;;;17.90;99.90;;;;;;7335730;19;109512;-59
2023/06/23 05:19:04;;;;;;;;;;;17.90;99.90;;;;;;7333648;19;110148;-59
2023/06/23 05:21:31;;;;;;;;;;;18.00;99.90;;;;;;7334541;19;109339;-59
2023/06/23 05:23:59;;;;;;;;;;;18.00;99.90;;;;;;7335096;19;109509;-59
2023/06/23 05:26:26;;;;;;;;;;;18.00;99.90;;;;;;7337340;19;110191;-59
2023/06/23 05:28:54;;;;;;;;;;;18.00;99.90;;;;;;7332772;19;109289;-59
2023/06/23 05:31:22;;;;;;;;;;;18.10;99.90;;;;;;7329985;19;112581;-59
2023/06/23 05:33:50;;;;;;;;;;;18.10;99.90;;;;;;7332376;19;108298;-59
2023/06/23 05:36:20;;;;;;;;;;;18.20;99.90;;;;;;7331916;19;110081;-59
2023/06/23 05:38:47;;;;;;;;;;;18.30;99.90;;;;;;7332405;19;111119;-60
2023/06/23 05:41:15;;;;;;;;;;;18.30;99.90;;;;;;7326925;19;108978;-60
2023/06/23 05:43:42;;;;;;;;;;;18.40;99.90;;;;;;7333586;19;112160;-59
2023/06/23 05:46:12;;;;;;;;;;;18.40;99.90;;;;;;7330643;19;110133;-62
2023/06/23 05:48:42;;;;;;;;;;;18.40;99.90;;;;;;7334457;19;108993;-58
2023/06/23 05:51:11;;;;;;;;;;;18.50;99.90;;;;;;7328172;19;109158;-60
2023/06/23 05:53:39;;;;;;;;;;;18.50;99.90;;;;;;7333593;19;109280;-59
2023/06/23 05:56:33;;;;;;;;;;;18.60;99.90;;;;;;7330559;19;109160;-59
2023/06/23 05:59:02;;;;;;;;;;;18.70;99.90;;;;;;7329366;19;110331;-60
2023/06/23 06:01:30;;;;;;;;;;;18.70;99.90;;;;;;7334032;19;108941;-60
2023/06/23 06:04:17;;;;;;;;;;;18.80;99.90;;;;;;7332283;19;108518;-60
2023/06/23 06:06:46;;;;;;;;;;;18.90;99.90;;;;;;7333950;19;109427;-60
2023/06/23 06:09:14;;;;;;;;;;;18.90;99.90;;;;;;7323235;19;109722;-60
2023/06/23 06:11:43;;;;;;;;;;;19.00;99.90;;;;;;7335473;19;114387;-62
2023/06/23 06:14:11;;;;;;;;;;;19.00;99.90;;;;;;7327801;19;109949;-60
2023/06/23 06:16:39;;;;;;;;;;;19.10;99.90;;;;;;7331921;19;108818;-62
2023/06/23 06:19:07;;;;;;;;;;;19.20;99.90;;;;;;7330005;19;111660;-60
2023/06/23 06:21:35;;;;;;;;;;;19.20;99.90;;;;;;7327871;19;109054;-60
2023/06/23 06:24:03;;;;;;;;;;;19.30;99.90;;;;;;7329679;19;111154;-61
2023/06/23 06:26:31;;;;;;;;;;;19.40;99.90;;;;;;7326060;19;110484;-60
2023/06/23 06:28:58;;;;;;;;;;;19.40;99.90;;;;;;7326741;19;110907;-61
2023/06/23 06:31:27;;;;;;;;;;;19.50;99.90;;;;;;7337765;19;109308;-62
2023/06/23 06:33:55;;;;;;;;;;;19.50;99.90;;;;;;7328272;19;109375;-68
2023/06/23 06:36:23;;;;;;;;;;;19.60;99.90;;;;;;7332406;19;112581;-68
2023/06/23 06:38:51;;;;;;;;;;;19.70;99.90;;;;;;7329495;19;112075;-67
2023/06/23 06:41:18;;;;;;;;;;;19.80;99.90;;;;;;7328749;19;108845;-67
2023/06/23 06:43:45;;;;;;;;;;;19.80;99.90;;;;;;7333586;19;108941;-67
2023/06/23 06:46:13;;;;;;;;;;;19.90;99.90;;;;;;7339087;19;109702;-68
2023/06/23 06:48:41;;;;;;;;;;;20.00;99.90;;;;;;7341624;19;108644;-68
2023/06/23 06:51:08;;;;;;;;;;;20.10;99.90;;;;;;7338322;19;108751;-68
2023/06/23 06:53:35;;;;;;;;;;;20.10;99.90;;;;;;7344333;19;109309;-68
2023/06/23 06:56:03;;;;;;;;;;;20.20;99.90;;;;;;7337543;19;111387;-68
2023/06/23 06:58:30;;;;;;;;;;;20.30;99.90;;;;;;7339610;19;110280;-68
2023/06/23 07:00:58;;;;;;;;;;;20.40;99.90;;;;;;7336041;19;108893;-68
2023/06/23 07:03:26;;;;;;;;;;;20.40;99.90;;;;;;7340114;19;111049;-68
2023/06/23 07:05:53;;;;;;;;;;;20.50;99.90;;;;;;7334239;19;111154;-68
2023/06/23 07:08:20;;;;;;;;;;;20.60;99.90;;;;;;7338474;19;108879;-68
2023/06/23 07:10:47;;;;;;;;;;;20.60;99.90;;;;;;7337364;19;109881;-68
2023/06/23 07:13:14;;;;;;;;;;;20.60;99.90;;;;;;7339256;19;109170;-68
2023/06/23 07:15:41;;;;;;;;;;;20.60;99.90;;;;;;7344142;19;109062;-68
2023/06/23 07:18:09;;;;;;;;;;;20.70;99.90;;;;;;7334289;19;109493;-68
2023/06/23 07:20:36;;;;;;;;;;;20.80;99.90;;;;;;7339971;19;109069;-68
2023/06/23 07:23:03;;;;;;;;;;;20.90;99.90;;;;;;7334862;19;108812;-68
2023/06/23 07:25:30;;;;;;;;;;;20.90;99.90;;;;;;7336937;19;110037;-68
2023/06/23 07:27:57;;;;;;;;;;;21.00;99.90;;;;;;7337076;19;109099;-68
2023/06/23 07:30:24;;;;;;;;;;;21.00;99.90;;;;;;7334879;19;109116;-68
2023/06/23 07:32:52;;;;;;;;;;;21.10;99.90;;;;;;7334182;19;110273;-68
2023/06/23 07:35:19;;;;;;;;;;;21.20;99.90;;;;;;7340253;19;108336;-68
2023/06/23 07:37:46;;;;;;;;;;;21.30;99.90;;;;;;7341372;19;111045;-69
2023/06/23 07:40:13;;;;;;;;;;;21.40;99.90;;;;;;7338873;19;108898;-68
2023/06/23 07:42:40;;;;;;;;;;;21.50;99.90;;;;;;7336225;19;108698;-68
2023/06/23 07:45:07;;;;;;;;;;;21.60;99.90;;;;;;7336072;19;109947;-68
2023/06/23 07:47:34;;;;;;;;;;;21.60;99.90;;;;;;7338683;19;108929;-70
2023/06/23 07:50:02;;;;;;;;;;;21.80;99.90;;;;;;7335806;19;110204;-68
2023/06/23 07:52:29;;;;;;;;;;;21.70;99.90;;;;;;7334340;19;109103;-68
2023/06/23 07:54:56;;;;;;;;;;;21.70;99.90;;;;;;7334336;19;108883;-68
2023/06/23 07:57:24;;;;;;;;;;;21.80;99.90;;;;;;7335852;19;108577;-69
2023/06/23 07:59:52;;;;;;;;;;;21.70;99.90;;;;;;7341186;19;109170;-68
2023/06/23 08:02:19;;;;;;;;;;;21.90;99.90;;;;;;7335512;19;110623;-69
2023/06/23 08:04:46;;;;;;;;;;;22.00;99.90;;;;;;7336785;19;109300;-68
2023/06/23 08:07:14;;;;;;;;;;;22.10;99.90;;;;;;7334398;19;109031;-67
2023/06/23 08:09:41;;;;;;;;;;;22.10;99.90;;;;;;7339219;19;108794;-68
2023/06/23 08:12:08;;;;;;;;;;;22.10;99.90;;;;;;7331412;19;110132;-69
2023/06/23 08:14:35;;;;;;;;;;;22.20;99.90;;;;;;7335704;19;108517;-68
2023/06/23 08:17:02;;;;;;;;;;;22.30;99.90;;;;;;7327658;19;109010;-68
2023/06/23 08:19:30;;;;;;;;;;;22.40;99.90;;;;;;7331563;19;109812;-68
2023/06/23 08:21:57;;;;;;;;;;;22.50;99.90;;;;;;7339075;19;109778;-68
2023/06/23 08:24:24;;;;;;;;;;;22.60;99.90;;;;;;7337569;19;109189;-68
2023/06/23 08:26:51;;;;;;;;;;;22.60;99.90;;;;;;7335178;19;109351;-69
2023/06/23 08:29:19;;;;;;;;;;;22.60;99.90;;;;;;7338927;19;108932;-68
2023/06/23 08:31:46;;;;;;;;;;;22.70;99.90;;;;;;7336477;19;109947;-67
2023/06/23 08:34:13;;;;;;;;;;;22.70;99.90;;;;;;7336493;19;110321;-68
2023/06/23 08:36:40;;;;;;;;;;;22.60;99.90;;;;;;7335844;19;109071;-68
2023/06/23 08:39:08;;;;;;;;;;;22.70;99.90;;;;;;7331675;19;109206;-67
2023/06/23 08:41:37;;;;;;;;;;;22.70;99.90;;;;;;7340593;19;108799;-68
2023/06/23 08:44:05;;;;;;;;;;;22.70;99.90;;;;;;7329551;19;109489;-68
2023/06/23 08:46:32;;;;;;;;;;;22.70;99.90;;;;;;7331534;19;108706;-68
2023/06/23 08:49:16;;;;;;;;;;;22.80;99.90;;;;;;7333411;19;109404;-67
2023/06/23 08:51:43;;;;;;;;;;;22.90;99.90;;;;;;7336417;19;110223;-68
2023/06/23 08:54:11;;;;;;;;;;;23.00;99.90;;;;;;7333819;19;110213;-67
2023/06/23 08:56:38;;;;;;;;;;;23.10;99.90;;;;;;7334954;19;109031;-67
2023/06/23 08:59:05;;;;;;;;;;;23.20;99.90;;;;;;7332700;19;110239;-68
2023/06/23 09:01:33;;;;;;;;;;;23.30;99.90;;;;;;7334909;19;109035;-68
2023/06/23 09:04:00;;;;;;;;;;;23.30;99.90;;;;;;7340230;19;108952;-68
2023/06/23 09:06:27;;;;;;;;;;;23.40;99.90;;;;;;7335982;19;109218;-62
2023/06/23 09:08:55;;;;;;;;;;;23.40;99.90;;;;;;7330552;19;109062;-61
2023/06/23 09:11:23;;;;;;;;;;;23.50;99.90;;;;;;7335810;19;109493;-66
2023/06/23 09:13:51;;;;;;;;;;;23.50;99.90;;;;;;7332943;19;109323;-65
2023/06/23 09:16:18;;;;;;;;;;;23.50;99.90;;;;;;7331767;19;110186;-65
2023/06/23 09:18:46;;;;;;;;;;;23.50;99.90;;;;;;7327409;19;109774;-61
2023/06/23 09:21:13;;;;;;;;;;;23.60;99.90;;;;;;7334769;19;108774;-60
2023/06/23 09:23:56;;;;;;;;;;;23.70;99.90;;;;;;7333564;19;108908;-61
2023/06/23 09:26:23;;;;;;;;;;;23.90;99.90;;;;;;7339413;19;109726;-60
2023/06/23 09:28:50;;;;;;;;;;;24.10;99.90;;;;;;7334879;19;110747;-60
2023/06/23 09:31:18;;;;;;;;;;;24.20;99.90;;;;;;7333982;19;109192;-61
2023/06/23 09:33:48;;;;;;;;;;;24.30;99.90;;;;;;7333999;19;108808;-61
2023/06/23 09:36:15;;;;;;;;;;;24.40;99.90;;;;;;7332928;19;110437;-61
2023/06/23 09:38:42;;;;;;;;;;;24.50;99.90;;;;;;7336497;19;109128;-60
2023/06/23 09:41:18;;;;;;;;;;;24.40;99.90;;;;;;7332046;19;108474;-61
2023/06/23 09:43:52;;;;;;;;;;;24.50;99.90;;;;;;7333854;19;109431;-61
2023/06/23 09:46:20;;;;;;;;;;;24.60;99.90;;;;;;7334011;19;109485;-61
2023/06/23 09:48:51;;;;;;;;;;;24.80;99.90;;;;;;7340688;19;109248;-60
2023/06/23 09:51:21;;;;;;;;;;;24.90;99.90;;;;;;7331866;19;109110;-66
2023/06/23 09:53:49;;;;;;;;;;;25.10;99.90;;;;;;7333738;19;109726;-61
2023/06/23 09:56:20;;;;;;;;;;;25.10;99.90;;;;;;7333816;19;109088;-63
2023/06/23 09:58:48;;;;;;;;;;;25.20;99.90;;;;;;7332094;19;110486;-61
2023/06/23 10:01:17;;;;;;;;;;;25.10;99.90;;;;;;7334423;19;108710;-62
2023/06/23 10:03:48;;;;;;;;;;;25.10;99.90;;;;;;7332739;19;110604;-68
2023/06/23 10:06:26;;;;;;;;;;;25.10;99.90;;;;;;7332311;19;110559;-69
2023/06/23 10:08:58;;;;;;;;;;;25.10;99.90;;;;;;7329555;19;110954;-61
2023/06/23 10:11:28;;;;;;;;;;;25.30;99.90;;;;;;7340219;19;108720;-61
2023/06/23 10:13:56;;;;;;;;;;;25.50;99.90;;;;;;7332905;19;108922;-62
2023/06/23 10:16:23;;;;;;;;;;;25.60;99.90;;;;;;7334393;19;111724;-61
2023/06/23 10:18:51;;;;;;;;;;;25.60;99.90;;;;;;7338318;19;109155;-61
2023/06/23 10:21:19;;;;;;;;;;;25.60;99.90;;;;;;7340933;19;108824;-63
2023/06/23 10:23:47;;;;;;;;;;;25.70;99.90;;;;;;7340238;19;113726;-61
2023/06/23 10:26:16;;;;;;;;;;;25.80;99.90;;;;;;7337738;19;110794;-61
2023/06/23 10:28:49;;;;;;;;;;;25.80;99.90;;;;;;7339609;19;108421;-62
2023/06/23 10:31:17;;;;;;;;;;;25.80;99.90;;;;;;7345648;19;108489;-61
2023/06/23 10:33:44;;;;;;;;;;;25.90;99.90;;;;;;7343671;19;109374;-61
2023/06/23 10:36:13;;;;;;;;;;;26.00;99.90;;;;;;7338669;19;112238;-62
2023/06/23 10:38:42;;;;;;;;;;;26.10;99.90;;;;;;7339745;19;109004;-62
2023/06/23 10:41:10;;;;;;;;;;;26.20;99.90;;;;;;7338792;19;110029;-61
2023/06/23 10:43:39;;;;;;;;;;;26.20;99.90;;;;;;7337089;19;108782;-63
2023/06/23 10:46:07;;;;;;;;;;;26.10;99.90;;;;;;7338961;19;109280;-61
2023/06/23 10:48:35;;;;;;;;;;;26.10;99.90;;;;;;7341008;19;108846;-61
2023/06/23 10:51:02;;;;;;;;;;;26.00;99.90;;;;;;7339905;19;109511;-61
2023/06/23 10:53:32;;;;;;;;;;;26.10;99.90;;;;;;7344068;19;109238;-61
2023/06/23 10:55:59;;;;;;;;;;;26.20;99.90;;;;;;7337841;19;110322;-60
2023/06/23 10:58:50;;;;;;;;;;;26.30;99.90;;;;;;7340399;19;109700;-61
2023/06/23 11:01:17;;;;;;;;;;;26.30;99.90;;;;;;7340653;19;108561;-61
2023/06/23 11:03:44;;;;;;;;;;;26.40;99.90;;;;;;7337266;19;109415;-61
2023/06/23 11:06:12;;;;;;;;;;;26.30;99.90;;;;;;7340111;19;110637;-60
2023/06/23 11:08:40;;;;;;;;;;;26.30;99.90;;;;;;7336085;19;109310;-61
2023/06/23 11:11:08;;;;;;;;;;;26.20;99.90;;;;;;7338402;19;108993;-61
2023/06/23 11:13:37;;;;;;;;;;;26.20;99.90;;;;;;7338349;19;109302;-61
2023/06/23 11:16:05;;;;;;;;;;;26.20;99.90;;;;;;7345024;19;109738;-61
2023/06/23 11:18:32;;;;;;;;;;;26.40;99.90;;;;;;7338105;19;109928;-61
2023/06/23 11:21:19;;;;;;;;;;;26.50;99.90;;;;;;7338685;19;108500;-61
2023/06/23 11:24:04;;;;;;;;;;;26.60;99.90;;;;;;7333026;19;110130;-61
2023/06/23 11:26:32;;;;;;;;;;;26.80;99.90;;;;;;7339408;19;110889;-61
2023/06/23 11:29:00;;;;;;;;;;;26.90;99.90;;;;;;7336737;19;108934;-60
2023/06/23 11:31:28;;;;;;;;;;;27.00;99.90;;;;;;7335653;19;110913;-61
2023/06/23 11:34:02;;;;;;;;;;;27.10;99.90;;;;;;7337359;19;109261;-61
2023/06/23 11:36:30;;;;;;;;;;;27.20;99.90;;;;;;7336641;19;108739;-62
2023/06/23 11:38:58;;;;;;;;;;;27.20;99.90;;;;;;7342270;19;109363;-61
2023/06/23 11:41:29;;;;;;;;;;;27.10;99.90;;;;;;7336298;19;110143;-61
2023/06/23 11:44:01;;;;;;;;;;;27.00;99.90;;;;;;7337213;19;109660;-60
2023/06/23 11:46:32;;;;;;;;;;;27.20;99.90;;;;;;7336212;19;112104;-60
2023/06/23 11:49:08;;;;;;;;;;;27.30;99.90;;;;;;7335337;19;109415;-60
2023/06/23 11:51:35;;;;;;;;;;;27.50;99.90;;;;;;7334509;19;110378;-61
2023/06/23 11:54:03;;;;;;;;;;;27.60;99.90;;;;;;7333128;19;109125;-61
2023/06/23 11:56:32;;;;;;;;;;;27.70;99.90;;;;;;7337279;19;109687;-60
2023/06/23 11:59:01;;;;;;;;;;;27.80;99.90;;;;;;7334945;19;108638;-60
2023/06/23 12:01:28;;;;;;;;;;;27.90;99.90;;;;;;7343200;19;109576;-61
2023/06/23 12:03:55;;;;;;;;;;;28.00;99.90;;;;;;7335787;19;108833;-61
2023/06/23 12:06:24;;;;;;;;;;;28.20;99.90;;;;;;7335859;19;109198;-60
2023/06/23 12:08:52;;;;;;;;;;;28.30;99.90;;;;;;7334571;19;108773;-60
2023/06/23 12:11:20;;;;;;;;;;;28.40;99.90;;;;;;7338869;19;109340;-60
2023/06/23 12:13:51;;;;;;;;;;;28.40;99.90;;;;;;7331756;19;109610;-60
2023/06/23 12:16:18;;;;;;;;;;;28.50;99.90;;;;;;7338601;19;108748;-60
2023/06/23 12:18:46;;;;;;;;;;;28.60;99.90;;;;;;7334736;19;108613;-60
2023/06/23 12:21:14;;;;;;;;;;;28.70;99.90;;;;;;7337801;19;110297;-60
2023/06/23 12:23:42;;;;;;;;;;;28.70;99.90;;;;;;7344268;19;108521;-60
2023/06/23 12:26:10;;;;;;;;;;;28.90;99.90;;;;;;7335735;19;109922;-60
2023/06/23 12:28:37;;;;;;;;;;;29.00;99.90;;;;;;7337465;19;108552;-63
2023/06/23 12:31:05;;;;;;;;;;;29.10;99.90;;;;;;7338074;19;110703;-60
2023/06/23 12:33:33;;;;;;;;;;;29.30;99.90;;;;;;7335270;19;109520;-61
2023/06/23 12:36:04;;;;;;;;;;;29.40;99.90;;;;;;7337686;19;108796;-61
2023/06/23 12:38:32;;;;;;;;;;;29.50;99.90;;;;;;7338718;19;109560;-60
2023/06/23 12:41:15;;;;;;;;;;;29.60;97.80;;;;;;7334110;19;109670;-60
2023/06/23 12:43:42;;;;;;;;;;;29.40;99.60;;;;;;7341672;19;109176;-60
2023/06/23 12:46:12;;;;;;;;;;;29.40;99.90;;;;;;7334032;19;109216;-61
2023/06/23 12:48:39;;;;;;;;;;;29.50;99.90;;;;;;7338089;19;109065;-60
2023/06/23 12:51:07;;;;;;;;;;;29.60;99.90;;;;;;7335799;19;108671;-60
2023/06/23 12:53:34;;;;;;;;;;;29.70;99.90;;;;;;7335675;19;109142;-61
2023/06/23 12:56:02;;;;;;;;;;;29.90;99.70;;;;;;7333194;19;110825;-60
2023/06/23 12:58:29;;;;;;;;;;;29.80;96.80;;;;;;7338275;19;108066;-60
2023/06/23 13:00:56;;;;;;;;;;;29.60;97.50;;;;;;7334570;19;109152;-60
2023/06/23 13:03:23;;;;;;;;;;;29.50;99.70;;;;;;7337519;19;108742;-60
2023/06/23 13:05:50;;;;;;;;;;;29.50;98.20;;;;;;7335997;19;108939;-60
2023/06/23 13:08:17;;;;;;;;;;;29.60;98.90;;;;;;7335480;19;109245;-60
2023/06/23 13:10:45;;;;;;;;;;;29.70;98.30;;;;;;7335513;19;109412;-61
2023/06/23 13:13:12;;;;;;;;;;;29.80;98.50;;;;;;7336646;19;109878;-60
2023/06/23 13:15:39;;;;;;;;;;;29.80;98.50;;;;;;7333300;19;110861;-60
2023/06/23 13:18:06;;;;;;;;;;;29.80;97.60;;;;;;7334677;19;108874;-61
2023/06/23 13:20:34;;;;;;;;;;;29.90;98.30;;;;;;7334687;19;109265;-62
2023/06/23 13:23:01;;;;;;;;;;;29.90;98.10;;;;;;7330124;19;108425;-61
2023/06/23 13:25:28;;;;;;;;;;;30.00;98.80;;;;;;7332185;19;110062;-60
2023/06/23 13:27:55;;;;;;;;;;;30.10;98.00;;;;;;7339313;19;110117;-60
2023/06/23 13:30:22;;;;;;;;;;;30.20;96.20;;;;;;7335145;19;108998;-60
2023/06/23 13:32:49;;;;;;;;;;;30.20;98.10;;;;;;7333177;19;113392;-60
2023/06/23 13:35:17;;;;;;;;;;;30.30;97.10;;;;;;7334709;19;109097;-60
2023/06/23 13:37:44;;;;;;;;;;;30.50;98.10;;;;;;7334414;19;109306;-60
2023/06/23 13:40:12;;;;;;;;;;;30.50;97.60;;;;;;7334344;19;109845;-60
2023/06/23 13:42:40;;;;;;;;;;;30.50;97.00;;;;;;7333767;19;108773;-60
2023/06/23 13:45:08;;;;;;;;;;;30.50;96.60;;;;;;7333351;19;109967;-60
2023/06/23 13:47:40;;;;;;;;;;;30.50;96.30;;;;;;7331238;19;110016;-60
2023/06/23 13:50:11;;;;;;;;;;;30.50;97.20;;;;;;7337550;19;109273;-60
2023/06/23 13:52:39;;;;;;;;;;;30.70;96.50;;;;;;7327125;19;110372;-62
2023/06/23 13:55:07;;;;;;;;;;;30.80;97.50;;;;;;7331264;19;110548;-60
2023/06/23 13:57:37;;;;;;;;;;;30.90;97.10;;;;;;7327469;19;111220;-61
2023/06/23 14:00:05;;;;;;;;;;;31.00;97.20;;;;;;7330284;19;111408;-61
2023/06/23 14:02:33;;;;;;;;;;;31.00;95.80;;;;;;7332017;19;108363;-60
2023/06/23 14:05:00;;;;;;;;;;;30.80;93.80;;;;;;7331595;19;109302;-60
2023/06/23 14:07:28;;;;;;;;;;;30.60;95.20;;;;;;7332318;19;110913;-61
2023/06/23 14:09:55;;;;;;;;;;;30.70;95.80;;;;;;7327549;19;108841;-61
2023/06/23 14:12:22;;;;;;;;;;;30.70;95.20;;;;;;7338278;19;108921;-61
2023/06/23 14:14:49;;;;;;;;;;;30.80;96.20;;;;;;7330840;19;109018;-60
2023/06/23 14:17:17;;;;;;;;;;;30.80;95.20;;;;;;7327664;19;111387;-61